createdAt,value
2018-08-12T00:02:17.827Z,56.20
2018-08-12T00:04:45.733Z,56.30
2018-08-12T00:07:13.653Z,56.30
2018-08-12T00:09:41.632Z,56.00
2018-08-12T00:12:09.699Z,56.00
2018-08-12T00:14:37.533Z,56.00
2018-08-12T00:17:05.467Z,56.10
2018-08-12T00:19:33.294Z,56.10
2018-08-12T00:22:01.219Z,56.10
2018-08-12T00:24:29.358Z,56.30
2018-08-12T00:26:57.311Z,56.40
2018-08-12T00:29:25.159Z,56.60
2018-08-12T00:31:52.977Z,56.60
2018-08-12T00:34:20.944Z,56.80
2018-08-12T00:36:48.931Z,56.80
2018-08-12T00:39:16.807Z,57.30
2018-08-12T00:41:44.913Z,56.90
2018-08-12T00:44:12.857Z,56.90
2018-08-12T00:46:40.733Z,56.90
2018-08-12T00:49:08.657Z,56.90
2018-08-12T00:51:36.697Z,56.90
2018-08-12T00:54:04.814Z,57.10
2018-08-12T00:56:32.826Z,57.20
2018-08-12T00:59:01.554Z,57.50
2018-08-12T01:01:29.577Z,57.80
2018-08-12T01:03:57.352Z,58.00
2018-08-12T01:06:25.243Z,58.50
2018-08-12T01:08:53.126Z,58.80
2018-08-12T01:11:21.152Z,59.00
2018-08-12T01:13:49.042Z,58.70
2018-08-12T01:16:16.998Z,58.50
2018-08-12T01:18:44.932Z,58.50
2018-08-12T01:21:13.000Z,58.60
2018-08-12T01:23:40.800Z,58.80
2018-08-12T01:26:08.778Z,58.80
2018-08-12T01:28:36.620Z,59.00
2018-08-12T01:31:04.572Z,59.20
2018-08-12T01:33:32.589Z,59.20
2018-08-12T01:36:00.602Z,60.10
2018-08-12T01:38:28.511Z,59.60
2018-08-12T01:40:56.515Z,59.80
2018-08-12T01:43:24.381Z,60.20
2018-08-12T01:45:52.316Z,61.00
2018-08-12T01:48:20.213Z,62.70
2018-08-12T01:50:48.169Z,64.10
2018-08-12T01:53:16.083Z,65.00
2018-08-12T01:55:43.949Z,65.60
2018-08-12T01:58:11.789Z,65.80
2018-08-12T02:00:39.631Z,66.40
2018-08-12T02:03:07.623Z,66.90
2018-08-12T02:05:35.627Z,67.60
2018-08-12T02:08:03.569Z,67.60
2018-08-12T02:10:31.608Z,67.60
2018-08-12T02:12:59.614Z,67.70
2018-08-12T02:15:27.594Z,67.20
2018-08-12T02:17:55.556Z,66.90
2018-08-12T02:20:23.420Z,66.60
2018-08-12T02:22:51.351Z,67.00
2018-08-12T02:25:19.221Z,66.90
2018-08-12T02:27:47.090Z,67.50
2018-08-12T02:30:14.962Z,68.60
2018-08-12T02:32:43.198Z,68.50
2018-08-12T02:35:11.157Z,69.10
2018-08-12T02:37:39.426Z,69.20
2018-08-12T02:40:08.317Z,69.60
2018-08-12T02:42:36.155Z,69.40
2018-08-12T02:45:05.339Z,69.70
2018-08-12T02:47:33.367Z,69.30
2018-08-12T02:50:01.231Z,69.50
2018-08-12T02:52:29.203Z,70.00
2018-08-12T02:54:57.221Z,70.10
2018-08-12T02:57:25.182Z,70.00
2018-08-12T02:59:53.078Z,69.90
2018-08-12T03:02:21.114Z,69.90
2018-08-12T03:04:49.130Z,70.00
2018-08-12T03:07:17.048Z,70.00
2018-08-12T03:09:44.933Z,69.90
2018-08-12T03:12:12.909Z,70.10
2018-08-12T03:14:40.860Z,70.10
2018-08-12T03:17:09.132Z,70.70
2018-08-12T03:19:37.062Z,71.00
2018-08-12T03:22:05.270Z,71.70
2018-08-12T03:24:33.166Z,71.70
2018-08-12T03:27:01.166Z,72.20
2018-08-12T03:29:29.114Z,72.50
2018-08-12T03:31:56.976Z,72.60
2018-08-12T03:34:24.796Z,72.80
2018-08-12T03:36:52.705Z,73.60
2018-08-12T03:39:20.604Z,74.10
2018-08-12T03:41:48.570Z,74.40
2018-08-12T03:44:16.555Z,74.80
2018-08-12T03:46:44.423Z,75.20
2018-08-12T03:49:12.324Z,75.70
2018-08-12T03:51:40.214Z,75.00
2018-08-12T03:54:08.159Z,74.90
2018-08-12T03:56:36.061Z,75.10
2018-08-12T03:59:03.960Z,75.30
2018-08-12T04:01:31.976Z,75.80
2018-08-12T04:03:59.873Z,76.00
2018-08-12T04:06:27.806Z,76.40
2018-08-12T04:08:55.653Z,77.50
2018-08-12T04:11:23.657Z,78.80
2018-08-12T04:13:51.537Z,80.00
2018-08-12T04:16:19.404Z,81.10
2018-08-12T04:18:47.319Z,82.10
2018-08-12T04:21:15.232Z,83.30
2018-08-12T04:23:43.222Z,85.00
2018-08-12T04:26:11.250Z,85.20
2018-08-12T04:28:39.102Z,85.90
2018-08-12T04:31:06.960Z,87.60
2018-08-12T04:33:34.882Z,87.50
2018-08-12T04:36:02.832Z,87.70
2018-08-12T04:38:30.676Z,86.90
2018-08-12T04:40:58.591Z,86.50
2018-08-12T04:43:26.370Z,86.00
2018-08-12T04:45:54.341Z,85.70
2018-08-12T04:48:22.209Z,85.60
2018-08-12T04:50:50.066Z,86.10
2018-08-12T04:53:18.028Z,86.60
2018-08-12T04:55:45.964Z,86.20
2018-08-12T04:58:13.836Z,86.70
2018-08-12T05:00:41.722Z,85.90
2018-08-12T05:03:09.606Z,84.50
2018-08-12T05:05:37.484Z,79.00
2018-08-12T05:08:05.412Z,74.10
2018-08-12T05:10:33.408Z,69.40
2018-08-12T05:13:01.493Z,65.40
2018-08-12T05:15:29.466Z,63.00
2018-08-12T05:17:57.425Z,61.90
2018-08-12T05:20:25.261Z,61.50
2018-08-12T05:22:53.047Z,61.70
2018-08-12T05:25:21.077Z,63.00
2018-08-12T05:27:48.999Z,64.10
2018-08-12T05:30:16.927Z,62.60
2018-08-12T05:32:44.848Z,60.60
2018-08-12T05:35:13.181Z,58.10
2018-08-12T05:37:41.221Z,56.30
2018-08-12T05:40:10.579Z,54.40
2018-08-12T05:42:38.487Z,52.90
2018-08-12T05:45:07.705Z,51.90
2018-08-12T05:47:35.667Z,50.50
2018-08-12T05:50:04.540Z,49.10
2018-08-12T05:52:32.368Z,46.70
2018-08-12T05:55:00.258Z,45.50
2018-08-12T05:57:28.183Z,44.30
2018-08-12T05:59:56.070Z,43.50
2018-08-12T06:02:24.056Z,42.90
2018-08-12T06:04:51.818Z,42.60
2018-08-12T06:07:19.790Z,42.80
2018-08-12T06:09:47.632Z,42.90
2018-08-12T06:12:15.678Z,43.30
2018-08-12T06:14:43.402Z,43.90
2018-08-12T06:17:11.315Z,43.90
2018-08-12T06:19:39.184Z,44.30
2018-08-12T06:22:07.480Z,44.70
2018-08-12T06:24:35.741Z,44.70
2018-08-12T06:27:03.659Z,44.90
2018-08-12T06:29:31.749Z,45.50
2018-08-12T06:31:59.587Z,45.40
2018-08-12T06:34:27.444Z,45.60
2018-08-12T06:36:55.476Z,45.50
2018-08-12T06:39:23.716Z,45.60
2018-08-12T06:41:51.625Z,45.70
2018-08-12T06:44:19.443Z,45.80
2018-08-12T06:46:47.353Z,46.10
2018-08-12T06:49:15.214Z,45.80
2018-08-12T06:51:43.381Z,45.50
2018-08-12T06:54:11.157Z,44.80
2018-08-12T06:56:39.054Z,45.20
2018-08-12T06:59:07.011Z,46.30
2018-08-12T07:01:34.834Z,45.90
2018-08-12T07:04:02.794Z,45.80
2018-08-12T07:06:30.787Z,45.90
2018-08-12T07:08:59.003Z,45.30
2018-08-12T07:11:27.856Z,45.00
2018-08-12T07:13:55.694Z,44.30
2018-08-12T07:16:23.611Z,44.00
2018-08-12T07:18:51.661Z,43.90
2018-08-12T07:21:19.617Z,43.40
2018-08-12T07:23:47.508Z,43.40
2018-08-12T07:26:15.462Z,43.00
2018-08-12T07:28:43.329Z,43.00
2018-08-12T07:31:11.187Z,42.40
2018-08-12T07:33:39.365Z,42.70
2018-08-12T07:36:07.375Z,42.20
2018-08-12T07:38:35.216Z,41.40
2018-08-12T07:41:03.083Z,40.70
2018-08-12T07:43:30.860Z,40.60
2018-08-12T07:45:58.757Z,40.60
2018-08-12T07:48:26.679Z,40.10
2018-08-12T07:50:54.553Z,39.50
2018-08-12T07:53:22.507Z,38.50
2018-08-12T07:55:50.485Z,36.30
2018-08-12T07:58:18.359Z,35.00
2018-08-12T08:00:46.276Z,34.50
2018-08-12T08:03:14.137Z,34.00
2018-08-12T08:05:41.987Z,32.70
2018-08-12T08:08:10.018Z,32.00
2018-08-12T08:10:37.840Z,30.90
2018-08-12T08:13:05.659Z,30.60
2018-08-12T08:15:33.546Z,30.40
2018-08-12T08:18:01.511Z,29.60
2018-08-12T08:20:29.523Z,29.00
2018-08-12T08:22:57.393Z,29.00
2018-08-12T08:25:25.458Z,28.10
2018-08-12T08:27:53.274Z,27.30
2018-08-12T08:30:21.114Z,26.80
2018-08-12T08:32:48.866Z,25.90
2018-08-12T08:35:16.732Z,24.80
2018-08-12T08:37:44.592Z,24.70
2018-08-12T08:40:14.000Z,24.30
2018-08-12T08:42:41.974Z,24.10
2018-08-12T08:45:13.570Z,23.40
2018-08-12T08:47:42.089Z,23.40
2018-08-12T08:50:09.976Z,23.10
2018-08-12T08:52:38.166Z,23.40
2018-08-12T08:55:07.600Z,23.40
2018-08-12T08:57:35.708Z,23.60
2018-08-12T09:00:06.737Z,24.20
2018-08-12T09:02:34.598Z,24.80
2018-08-12T09:05:02.473Z,25.70
2018-08-12T09:07:30.296Z,27.50
2018-08-12T09:09:58.134Z,28.90
2018-08-12T09:12:25.928Z,30.00
2018-08-12T09:14:53.910Z,31.10
2018-08-12T09:17:22.401Z,32.60
2018-08-12T09:19:50.285Z,34.10
2018-08-12T09:22:18.149Z,34.90
2018-08-12T09:24:45.933Z,35.40
2018-08-12T09:27:13.748Z,36.00
2018-08-12T09:29:41.588Z,36.40
2018-08-12T09:32:09.729Z,36.70
2018-08-12T09:34:37.653Z,37.30
2018-08-12T09:37:05.759Z,37.70
2018-08-12T09:39:33.738Z,38.20
2018-08-12T09:42:01.945Z,38.30
2018-08-12T09:44:30.020Z,38.40
2018-08-12T09:46:57.847Z,39.20
2018-08-12T09:49:25.815Z,38.70
2018-08-12T09:51:53.705Z,38.50
2018-08-12T09:54:21.541Z,38.40
2018-08-12T09:56:49.384Z,38.50
2018-08-12T09:59:17.279Z,38.70
2018-08-12T10:01:45.314Z,39.00
2018-08-12T10:04:13.128Z,38.90
2018-08-12T10:06:41.076Z,39.00
2018-08-12T10:09:10.510Z,39.30
2018-08-12T10:11:38.458Z,39.30
2018-08-12T10:14:06.444Z,39.20
2018-08-12T10:16:34.440Z,39.60
2018-08-12T10:19:02.405Z,40.10
2018-08-12T10:21:31.231Z,40.20
2018-08-12T10:23:59.241Z,40.10
2018-08-12T10:26:27.103Z,39.80
2018-08-12T10:28:55.193Z,39.70
2018-08-12T10:31:23.026Z,39.70
2018-08-12T10:33:50.920Z,39.90
2018-08-12T10:36:18.935Z,39.50
2018-08-12T10:38:46.743Z,39.20
2018-08-12T10:41:14.598Z,40.10
2018-08-12T10:43:42.653Z,39.80
2018-08-12T10:46:10.474Z,40.30
2018-08-12T10:48:38.339Z,40.10
2018-08-12T10:51:08.357Z,39.90
2018-08-12T10:53:37.040Z,40.00
2018-08-12T10:56:05.574Z,40.30
2018-08-12T10:58:33.882Z,40.70
2018-08-12T11:01:01.713Z,40.90
2018-08-12T11:03:29.602Z,39.90
2018-08-12T11:05:57.515Z,39.70
2018-08-12T11:08:25.502Z,39.60
2018-08-12T11:10:53.372Z,39.10
2018-08-12T11:13:21.166Z,39.60
2018-08-12T11:15:49.048Z,39.60
2018-08-12T11:18:16.933Z,40.20
2018-08-12T11:20:45.595Z,39.90
2018-08-12T11:23:14.639Z,40.10
2018-08-12T11:25:42.843Z,39.80
2018-08-12T11:28:12.219Z,39.50
2018-08-12T11:30:40.447Z,39.70
2018-08-12T11:33:09.233Z,39.60
2018-08-12T11:35:37.200Z,40.00
2018-08-12T11:38:05.448Z,39.70
2018-08-12T11:40:34.320Z,40.20
2018-08-12T11:43:02.509Z,39.90
2018-08-12T11:45:30.510Z,40.30
2018-08-12T11:47:58.368Z,39.90
2018-08-12T11:50:26.353Z,39.60
2018-08-12T11:52:54.196Z,39.60
2018-08-12T11:55:22.135Z,40.00
2018-08-12T11:57:50.669Z,39.90
2018-08-12T12:00:20.303Z,39.40
2018-08-12T12:02:49.336Z,39.20
2018-08-12T12:05:17.231Z,39.60
2018-08-12T12:07:45.469Z,39.10
2018-08-12T12:10:17.041Z,39.30
2018-08-12T12:12:46.844Z,39.60
2018-08-12T12:15:15.528Z,39.40
2018-08-12T12:17:44.234Z,39.40
2018-08-12T12:20:12.791Z,39.10
2018-08-12T12:22:41.481Z,39.30
2018-08-12T12:25:11.078Z,39.60
2018-08-12T12:27:38.979Z,40.50
2018-08-12T12:30:09.678Z,40.20
2018-08-12T12:32:37.576Z,39.00
2018-08-12T12:35:05.640Z,39.70
2018-08-12T12:37:33.492Z,38.80
2018-08-12T12:40:01.380Z,38.40
2018-08-12T12:42:29.346Z,38.70
2018-08-12T12:44:57.534Z,39.30
2018-08-12T12:47:25.448Z,38.30
2018-08-12T12:49:53.377Z,38.70
2018-08-12T12:52:21.221Z,38.50
2018-08-12T12:54:49.105Z,38.70
2018-08-12T12:57:16.955Z,38.30
2018-08-12T12:59:44.925Z,38.50
2018-08-12T13:02:12.887Z,38.10
2018-08-12T13:04:41.954Z,38.20
2018-08-12T13:07:09.987Z,38.40
2018-08-12T13:09:37.921Z,38.30
2018-08-12T13:12:06.190Z,37.60
2018-08-12T13:14:34.170Z,37.90
2018-08-12T13:17:02.222Z,37.60
2018-08-12T13:19:30.756Z,37.80
2018-08-12T13:21:58.712Z,37.60
2018-08-12T13:24:26.558Z,37.10
2018-08-12T13:26:54.332Z,36.60
2018-08-12T13:29:22.182Z,37.10
2018-08-12T13:31:50.096Z,36.90
2018-08-12T13:34:17.976Z,37.30
2018-08-12T13:36:45.918Z,36.70
2018-08-12T13:39:13.874Z,36.60
2018-08-12T13:41:41.787Z,36.40
2018-08-12T13:44:09.672Z,37.30
2018-08-12T13:46:37.565Z,37.00
2018-08-12T13:49:05.592Z,37.10
2018-08-12T13:51:36.241Z,37.40
2018-08-12T13:54:04.171Z,36.90
2018-08-12T13:56:32.109Z,37.00
2018-08-12T13:58:59.898Z,37.20
2018-08-12T14:01:27.907Z,36.30
2018-08-12T14:03:55.749Z,35.90
2018-08-12T14:06:23.597Z,35.80
2018-08-12T14:08:51.529Z,35.50
2018-08-12T14:11:19.405Z,36.40
2018-08-12T14:13:47.235Z,36.40
2018-08-12T14:16:15.116Z,35.20
2018-08-12T14:18:43.010Z,35.50
2018-08-12T14:21:10.992Z,35.80
2018-08-12T14:23:39.040Z,36.10
2018-08-12T14:26:06.990Z,36.40
2018-08-12T14:28:34.969Z,36.60
2018-08-12T14:31:02.986Z,37.20
2018-08-12T14:33:31.312Z,36.90
2018-08-12T14:35:59.226Z,37.90
2018-08-12T14:38:27.086Z,37.70
2018-08-12T14:40:54.945Z,38.00
2018-08-12T14:43:22.725Z,37.60
2018-08-12T14:45:50.648Z,37.20
2018-08-12T14:48:18.487Z,37.40
2018-08-12T14:50:46.259Z,37.30
2018-08-12T14:53:14.119Z,37.60
2018-08-12T14:55:41.984Z,37.10
2018-08-12T14:58:09.779Z,37.50
2018-08-12T15:00:37.679Z,37.10
2018-08-12T15:03:05.896Z,37.10
2018-08-12T15:05:33.812Z,37.30
2018-08-12T15:08:01.806Z,37.70
2018-08-12T15:10:29.623Z,36.80
2018-08-12T15:12:57.552Z,36.90
2018-08-12T15:15:25.501Z,36.60
2018-08-12T15:17:53.350Z,37.20
2018-08-12T15:20:21.232Z,37.60
2018-08-12T15:22:49.146Z,37.90
2018-08-12T15:25:18.585Z,37.30
2018-08-12T15:27:46.881Z,37.50
2018-08-12T15:30:14.892Z,35.90
2018-08-12T15:32:42.775Z,36.10
2018-08-12T15:35:10.969Z,35.50
2018-08-12T15:37:39.841Z,35.40
2018-08-12T15:40:10.560Z,36.60
2018-08-12T15:42:38.844Z,36.90
2018-08-12T15:45:09.426Z,37.00
2018-08-12T15:47:37.566Z,36.30
2018-08-12T15:50:07.632Z,36.70
2018-08-12T15:52:36.553Z,37.10
2018-08-12T15:55:04.784Z,37.20
2018-08-12T15:57:33.463Z,37.00
2018-08-12T16:00:01.727Z,37.10
2018-08-12T16:02:30.453Z,36.10
2018-08-12T16:04:59.241Z,36.90
2018-08-12T16:07:27.704Z,37.30
2018-08-12T16:09:56.478Z,37.80
2018-08-12T16:12:24.544Z,37.50
2018-08-12T16:14:52.426Z,37.80
2018-08-12T16:17:20.346Z,37.60
2018-08-12T16:19:48.240Z,37.40
2018-08-12T16:22:17.233Z,38.10
2018-08-12T16:24:45.220Z,38.10
2018-08-12T16:27:13.741Z,38.10
2018-08-12T16:29:42.428Z,37.80
2018-08-12T16:32:10.360Z,37.40
2018-08-12T16:34:38.377Z,38.10
2018-08-12T16:37:06.229Z,37.60
2018-08-12T16:39:34.028Z,37.60
2018-08-12T16:42:02.079Z,37.60
2018-08-12T16:44:29.939Z,37.90
2018-08-12T16:46:57.973Z,36.70
2018-08-12T16:49:26.004Z,37.30
2018-08-12T16:51:53.808Z,37.20
2018-08-12T16:54:21.629Z,37.10
2018-08-12T16:56:49.680Z,37.20
2018-08-12T16:59:17.644Z,38.30
2018-08-12T17:01:45.537Z,37.00
2018-08-12T17:04:13.519Z,36.50
2018-08-12T17:06:41.417Z,36.40
2018-08-12T17:09:10.730Z,36.90
2018-08-12T17:11:38.630Z,37.20
2018-08-12T17:14:07.204Z,37.30
2018-08-12T17:16:35.145Z,37.60
2018-08-12T17:19:03.103Z,38.20
2018-08-12T17:21:30.996Z,37.70
2018-08-12T17:23:58.857Z,37.80
2018-08-12T17:26:26.762Z,38.00
2018-08-12T17:28:54.550Z,38.50
2018-08-12T17:31:22.450Z,38.70
2018-08-12T17:33:50.342Z,39.40
2018-08-12T17:36:18.313Z,39.30
2018-08-12T17:38:46.207Z,39.20
2018-08-12T17:41:14.076Z,39.40
2018-08-12T17:43:41.955Z,39.70
2018-08-12T17:46:09.883Z,40.20
2018-08-12T17:48:37.725Z,40.10
2018-08-12T17:51:05.747Z,40.50
2018-08-12T17:53:33.560Z,40.30
2018-08-12T17:56:01.477Z,40.80
2018-08-12T17:58:29.267Z,40.70
2018-08-12T18:00:57.100Z,41.00
2018-08-12T18:03:25.080Z,41.00
2018-08-12T18:05:52.923Z,41.20
2018-08-12T18:08:20.849Z,41.20
2018-08-12T18:10:48.763Z,41.50
2018-08-12T18:13:16.650Z,41.90
2018-08-12T18:15:44.614Z,41.90
2018-08-12T18:18:12.601Z,42.10
2018-08-12T18:20:40.579Z,41.90
2018-08-12T18:23:08.359Z,42.20
2018-08-12T18:25:36.280Z,42.60
2018-08-12T18:28:04.307Z,42.80
2018-08-12T18:30:32.103Z,43.10
2018-08-12T18:33:00.158Z,43.10
2018-08-12T18:35:28.043Z,42.80
2018-08-12T18:37:55.989Z,42.90
2018-08-12T18:40:24.052Z,43.30
2018-08-12T18:42:51.953Z,43.50
2018-08-12T18:45:20.067Z,43.60
2018-08-12T18:47:48.021Z,43.70
2018-08-12T18:50:16.075Z,44.10
2018-08-12T18:52:44.200Z,44.40
2018-08-12T18:55:12.829Z,45.50
2018-08-12T18:57:40.772Z,44.80
2018-08-12T19:00:10.924Z,44.60
2018-08-12T19:02:38.958Z,45.30
2018-08-12T19:05:10.701Z,45.00
2018-08-12T19:07:39.000Z,45.30
2018-08-12T19:10:08.160Z,46.00
2018-08-12T19:12:36.136Z,45.60
2018-08-12T19:15:06.087Z,45.70
2018-08-12T19:17:34.305Z,45.80
2018-08-12T19:20:02.522Z,45.90
2018-08-12T19:22:30.430Z,46.30
2018-08-12T19:24:58.474Z,46.40
2018-08-12T19:27:26.408Z,46.50
2018-08-12T19:29:54.275Z,46.70
2018-08-12T19:32:22.163Z,46.70
2018-08-12T19:34:50.069Z,47.10
2018-08-12T19:37:17.925Z,47.60
2018-08-12T19:39:45.861Z,47.30
2018-08-12T19:42:13.671Z,47.30
2018-08-12T19:44:41.707Z,47.60
2018-08-12T19:47:09.545Z,47.80
2018-08-12T19:49:37.385Z,48.00
2018-08-12T19:52:13.422Z,47.90
2018-08-12T19:54:45.755Z,48.20
2018-08-12T19:57:15.018Z,48.50
2018-08-12T19:59:43.124Z,49.20
2018-08-12T20:02:11.302Z,49.30
2018-08-12T20:04:39.206Z,49.10
2018-08-12T20:07:07.263Z,49.00
2018-08-12T20:09:35.176Z,49.10
2018-08-12T20:12:03.315Z,49.10
2018-08-12T20:14:31.747Z,49.20
2018-08-12T20:16:59.699Z,49.60
2018-08-12T20:19:27.703Z,49.70
2018-08-12T20:21:55.554Z,49.90
2018-08-12T20:24:23.378Z,50.20
2018-08-12T20:26:51.324Z,50.40
2018-08-12T20:29:19.168Z,50.60
2018-08-12T20:31:47.118Z,50.70
2018-08-12T20:34:14.938Z,50.70
2018-08-12T20:36:43.195Z,50.80
2018-08-12T20:39:12.472Z,51.10
2018-08-12T20:41:40.815Z,51.30
2018-08-12T20:44:08.735Z,51.70
2018-08-12T20:46:36.713Z,51.80
2018-08-12T20:49:04.712Z,51.80
2018-08-12T20:51:32.579Z,52.10
2018-08-12T20:54:00.441Z,52.10
2018-08-12T20:56:28.329Z,52.10
2018-08-12T20:58:56.356Z,52.30
2018-08-12T21:01:24.179Z,52.20
2018-08-12T21:03:52.096Z,52.00
2018-08-12T21:06:20.086Z,52.00
2018-08-12T21:08:47.915Z,52.10
2018-08-12T21:11:15.965Z,52.30
2018-08-12T21:13:43.745Z,52.40
2018-08-12T21:16:11.556Z,52.80
2018-08-12T21:18:39.588Z,52.90
2018-08-12T21:21:07.436Z,53.10
2018-08-12T21:23:35.230Z,53.50
2018-08-12T21:26:03.263Z,53.50
2018-08-12T21:28:31.265Z,53.30
2018-08-12T21:30:59.103Z,53.50
2018-08-12T21:33:27.235Z,53.50
2018-08-12T21:35:54.985Z,53.60
2018-08-12T21:38:22.752Z,53.80
2018-08-12T21:40:50.627Z,54.10
2018-08-12T21:43:18.346Z,54.20
2018-08-12T21:45:46.197Z,54.20
2018-08-12T21:48:14.218Z,54.30
2018-08-12T21:50:42.056Z,54.50
2018-08-12T21:53:09.904Z,54.70
2018-08-12T21:55:37.985Z,54.90
2018-08-12T21:58:05.851Z,55.40
2018-08-12T22:00:33.731Z,55.60
2018-08-12T22:03:01.746Z,55.60
2018-08-12T22:05:29.567Z,55.90
2018-08-12T22:07:58.951Z,56.00
2018-08-12T22:10:26.970Z,56.00
2018-08-12T22:12:54.740Z,56.20
2018-08-12T22:15:22.726Z,56.40
2018-08-12T22:17:50.554Z,56.70
2018-08-12T22:20:18.460Z,56.80
2018-08-12T22:22:46.255Z,56.70
2018-08-12T22:25:14.178Z,56.80
2018-08-12T22:27:42.028Z,57.20
2018-08-12T22:30:12.105Z,57.40
2018-08-12T22:32:40.049Z,57.50
2018-08-12T22:35:07.890Z,57.30
2018-08-12T22:37:35.713Z,57.40
2018-08-12T22:40:04.334Z,57.50
2018-08-12T22:42:32.184Z,57.70
2018-08-12T22:45:00.071Z,57.70
2018-08-12T22:47:28.011Z,57.60
2018-08-12T22:49:55.994Z,57.70
2018-08-12T22:52:24.033Z,57.60
2018-08-12T22:54:51.900Z,57.60
2018-08-12T22:57:19.803Z,57.70
2018-08-12T22:59:47.595Z,57.60
2018-08-12T23:02:15.688Z,57.60
2018-08-12T23:04:43.823Z,57.60
2018-08-12T23:07:11.724Z,57.80
2018-08-12T23:09:39.881Z,57.80
2018-08-12T23:12:08.048Z,58.00
2018-08-12T23:14:35.847Z,58.00
2018-08-12T23:17:03.985Z,58.00
2018-08-12T23:19:31.798Z,58.00
2018-08-12T23:21:59.687Z,58.00
2018-08-12T23:24:27.579Z,58.00
2018-08-12T23:26:55.470Z,58.00
2018-08-12T23:29:23.382Z,58.40
2018-08-12T23:31:51.304Z,58.50
2018-08-12T23:34:19.181Z,58.60
2018-08-12T23:36:47.079Z,58.80
2018-08-12T23:39:14.940Z,58.90
2018-08-12T23:41:42.872Z,58.40
2018-08-12T23:44:10.779Z,59.00
2018-08-12T23:46:38.714Z,58.80
2018-08-12T23:49:06.512Z,58.80
2018-08-12T23:51:34.366Z,58.80
2018-08-12T23:54:02.383Z,58.90
2018-08-12T23:56:30.442Z,58.90
2018-08-12T23:58:58.240Z,59.70
